Time;durP1;ratioP1;P1;durP2;ratioP2;P2;SDS_P1;SDS_P2;PMS_P1;PMS_P2;Temp;Humidity;BMP_temperature;BMP_pressure;BME280_temperature;BME280_humidity;BME280_pressure;Samples;Min_cycle;Max_cycle;Signal;HPM_P1;HPM_P2
2023/07/25 00:01:08;;;;;;;3.17;2.17;;;;;;;17.06;72.24;95807.66;4934320;29;20083;-72
2023/07/25 00:03:36;;;;;;;3.90;2.17;;;;;;;17.04;72.11;95804.47;4934833;29;20099;-73
2023/07/25 00:06:05;;;;;;;3.03;2.20;;;;;;;17.03;72.65;95792.31;4934578;29;20486;-72
2023/07/25 00:08:34;;;;;;;2.17;1.75;;;;;;;17.03;72.75;95794.97;4934647;29;20051;-73
2023/07/25 00:11:02;;;;;;;4.28;2.30;;;;;;;17.02;72.66;95785.47;4934416;29;20475;-72
2023/07/25 00:13:29;;;;;;;2.40;1.95;;;;;;;17.00;72.74;95784.91;4934514;29;20099;-72
2023/07/25 00:15:57;;;;;;;2.78;2.17;;;;;;;16.98;72.82;95781.72;4934744;29;20059;-72
2023/07/25 00:18:25;;;;;;;3.45;1.70;;;;;;;16.96;73.08;95781.16;4934794;29;20051;-72
2023/07/25 00:20:52;;;;;;;3.65;1.90;;;;;;;16.93;73.05;95771.13;4944880;29;20054;-73
2023/07/25 00:23:20;;;;;;;3.65;1.92;;;;;;;16.89;73.22;95761.06;4954419;29;20047;-73
2023/07/25 00:25:49;;;;;;;2.45;2.17;;;;;;;16.89;73.31;95766.31;4947786;29;20475;-73
2023/07/25 00:28:16;;;;;;;2.83;1.92;;;;;;;16.88;73.18;95767.38;4935303;29;20095;-72
2023/07/25 00:30:44;;;;;;;2.75;2.00;;;;;;;16.87;73.09;95760.50;4937047;29;20075;-72
2023/07/25 00:33:12;;;;;;;2.05;1.83;;;;;;;16.85;73.11;95754.66;4937783;29;20083;-73
2023/07/25 00:35:39;;;;;;;2.30;1.98;;;;;;;16.83;73.30;95756.75;4937744;29;20471;-72
2023/07/25 00:38:07;;;;;;;2.40;1.90;;;;;;;16.82;73.69;95755.16;4938196;29;20463;-73
2023/07/25 00:40:38;;;;;;;2.30;1.85;;;;;;;16.80;74.01;95751.97;4937798;29;20511;-72
2023/07/25 00:43:07;;;;;;;2.03;1.80;;;;;;;16.77;73.76;95751.63;4937712;29;20491;-73
2023/07/25 00:45:35;;;;;;;4.13;2.30;;;;;;;16.73;73.88;95758.44;4938114;29;20471;-72
2023/07/25 00:48:03;;;;;;;2.85;2.03;;;;;;;16.72;74.11;95756.81;4938001;29;20075;-72
2023/07/25 00:50:30;;;;;;;4.20;2.20;;;;;;;16.68;74.11;95756.50;4937892;29;20051;-72
2023/07/25 00:52:59;;;;;;;8.10;2.38;;;;;;;16.62;74.36;95744.31;4937313;29;20067;-72
2023/07/25 00:55:28;;;;;;;2.50;2.03;;;;;;;16.55;74.37;95752.38;4937375;29;20111;-72
2023/07/25 00:57:55;;;;;;;2.95;1.73;;;;;;;16.49;74.68;95755.97;4937556;29;20047;-73
2023/07/25 01:00:24;;;;;;;4.03;2.10;;;;;;;16.45;74.94;95753.00;4936915;29;20100;-72
2023/07/25 01:02:52;;;;;;;3.15;2.38;;;;;;;16.44;74.87;95748.78;4939828;29;20051;-73
2023/07/25 01:05:20;;;;;;;3.00;2.13;;;;;;;16.41;75.10;95743.97;4937425;29;20566;-73
2023/07/25 01:07:48;;;;;;;3.45;2.30;;;;;;;16.42;75.10;95744.78;4936991;29;20055;-73
2023/07/25 01:10:15;;;;;;;3.28;1.95;;;;;;;16.42;75.01;95745.59;4936591;29;20139;-72
2023/07/25 01:12:43;;;;;;;2.38;1.90;;;;;;;16.43;74.99;95747.19;4937156;29;20506;-73
2023/07/25 01:15:11;;;;;;;4.07;2.40;;;;;;;16.43;75.05;95741.91;4936798;29;20496;-73
2023/07/25 01:17:40;;;;;;;2.22;2.03;;;;;;;16.44;75.07;95742.69;4937134;29;20059;-73
2023/07/25 01:20:10;;;;;;;2.10;1.90;;;;;;;16.43;74.94;95738.50;4936844;29;20056;-73
2023/07/25 01:22:39;;;;;;;6.35;2.28;;;;;;;16.44;75.23;95735.63;4936757;29;20047;-72
2023/07/25 01:25:09;;;;;;;3.33;1.98;;;;;;;16.48;74.89;95733.28;4936798;29;20043;-72
2023/07/25 01:27:36;;;;;;;3.97;1.83;;;;;;;16.51;74.91;95727.56;4936590;29;20114;-73
2023/07/25 01:30:05;;;;;;;3.17;2.05;;;;;;;16.55;74.79;95733.13;4936691;29;20051;-73
2023/07/25 01:32:33;;;;;;;4.32;2.30;;;;;;;16.57;74.76;95728.44;4936461;29;20064;-73
2023/07/25 01:35:00;;;;;;;3.50;1.92;;;;;;;16.60;74.77;95727.97;4936636;29;20052;-72
2023/07/25 01:37:28;;;;;;;2.72;2.08;;;;;;;16.65;74.65;95738.56;4936795;29;20408;-74
2023/07/25 01:39:55;;;;;;;3.60;2.33;;;;;;;16.66;74.54;95734.88;4936039;29;20052;-73
2023/07/25 01:42:24;;;;;;;3.53;2.15;;;;;;;16.67;74.77;95725.94;4935915;29;20063;-73
2023/07/25 01:44:52;;;;;;;4.97;2.42;;;;;;;16.64;74.52;95721.19;4936254;29;20043;-72
2023/07/25 01:47:25;;;;;;;5.55;2.90;;;;;;;16.60;74.71;95712.16;4936554;29;20103;-72
2023/07/25 01:49:53;;;;;;;3.00;2.25;;;;;;;16.56;75.07;95714.47;4936498;29;20094;-72
2023/07/25 01:52:21;;;;;;;3.72;2.78;;;;;;;16.53;75.17;95709.69;4936144;29;20107;-73
2023/07/25 01:54:50;;;;;;;3.08;2.22;;;;;;;16.50;75.09;95704.91;4936127;29;20052;-72
2023/07/25 01:57:18;;;;;;;3.28;2.85;;;;;;;16.48;75.35;95707.75;4935961;29;20499;-73
2023/07/25 01:59:46;;;;;;;3.30;2.45;;;;;;;16.48;75.44;95696.44;4935956;29;20490;-73
2023/07/25 02:02:14;;;;;;;3.25;2.38;;;;;;;16.47;75.29;95711.44;4935953;29;20566;-72
2023/07/25 02:04:42;;;;;;;4.05;2.45;;;;;;;16.47;75.72;95705.38;4936112;29;20054;-72
2023/07/25 02:07:09;;;;;;;3.20;2.65;;;;;;;16.48;75.32;95707.75;4935886;29;20047;-72
2023/07/25 02:09:37;;;;;;;3.15;2.70;;;;;;;16.47;75.53;95705.38;4935863;29;20128;-73
2023/07/25 02:12:05;;;;;;;3.72;2.40;;;;;;;16.44;75.56;95696.13;4935835;29;20056;-73
2023/07/25 02:14:33;;;;;;;2.53;2.13;;;;;;;16.41;75.62;95688.72;4936087;29;20140;-73
2023/07/25 02:17:02;;;;;;;5.10;2.67;;;;;;;16.39;75.64;95682.09;4935726;29;20110;-73
2023/07/25 02:19:30;;;;;;;3.08;2.33;;;;;;;16.39;75.65;95684.72;4936216;29;20052;-73
2023/07/25 02:21:57;;;;;;;4.53;2.60;;;;;;;16.37;75.72;95668.38;4935786;29;20079;-72
2023/07/25 02:24:25;;;;;;;2.95;2.70;;;;;;;16.33;75.71;95664.63;4935995;29;20051;-72
2023/07/25 02:26:52;;;;;;;3.38;2.67;;;;;;;16.26;75.73;95660.31;4936058;29;20055;-73
2023/07/25 02:29:20;;;;;;;4.22;2.88;;;;;;;16.21;76.30;95655.00;4937773;29;20056;-73
2023/07/25 02:31:48;;;;;;;4.75;2.67;;;;;;;16.18;76.38;95649.41;4949974;29;20048;-73
2023/07/25 02:34:17;;;;;;;4.07;2.92;;;;;;;16.15;76.54;95645.44;4947225;29;20048;-73
2023/07/25 02:36:44;;;;;;;5.65;2.90;;;;;;;16.15;76.50;95636.75;4936528;29;20052;-73
2023/07/25 02:39:12;;;;;;;2.42;2.22;;;;;;;16.15;76.51;95618.31;4936325;29;20467;-73
2023/07/25 02:41:40;;;;;;;3.45;2.72;;;;;;;16.15;76.69;95613.06;4936429;29;20494;-73
2023/07/25 02:44:07;;;;;;;5.75;2.90;;;;;;;16.15;76.67;95611.22;4947262;29;20047;-73
2023/07/25 02:46:35;;;;;;;3.78;2.75;;;;;;;16.15;76.60;95594.66;4935554;29;20087;-73
2023/07/25 02:49:02;;;;;;;4.47;2.72;;;;;;;16.14;76.69;95590.44;4935499;29;20130;-73
2023/07/25 02:51:31;;;;;;;3.90;2.75;;;;;;;16.14;76.71;95600.97;4934761;29;20115;-73
2023/07/25 02:54:00;;;;;;;5.43;2.78;;;;;;;16.11;76.67;95611.94;4935036;29;20083;-73
2023/07/25 02:56:28;;;;;;;2.75;2.30;;;;;;;16.09;76.84;95614.03;4935432;29;20059;-73
2023/07/25 02:58:56;;;;;;;5.13;3.00;;;;;;;16.09;76.99;95616.66;4935386;29;20055;-73
2023/07/25 03:01:24;;;;;;;2.70;2.20;;;;;;;16.06;76.84;95610.84;4935012;29;20547;-72
2023/07/25 03:03:51;;;;;;;5.35;3.00;;;;;;;16.04;76.88;95597.13;4935378;29;20078;-72
2023/07/25 03:06:19;;;;;;;3.92;2.50;;;;;;;16.05;76.94;95592.69;4935197;29;20048;-72
2023/07/25 03:08:48;;;;;;;3.92;2.58;;;;;;;16.08;76.95;95586.94;4935032;29;20051;-73
2023/07/25 03:11:15;;;;;;;4.18;2.97;;;;;;;16.11;76.89;95578.53;4934977;29;20047;-75
2023/07/25 03:13:43;;;;;;;5.22;2.80;;;;;;;16.17;76.53;95576.78;4935095;29;20059;-73
2023/07/25 03:16:11;;;;;;;3.80;3.03;;;;;;;16.22;76.46;95577.66;4934858;29;20055;-72
2023/07/25 03:18:39;;;;;;;3.95;2.45;;;;;;;16.27;76.13;95584.84;4935015;29;20507;-73
2023/07/25 03:21:06;;;;;;;3.00;2.67;;;;;;;16.30;76.10;95584.34;4934468;29;20087;-72
2023/07/25 03:23:34;;;;;;;3.33;2.35;;;;;;;16.28;75.93;95592.47;4935153;29;20495;-73
2023/07/25 03:26:03;;;;;;;4.05;2.50;;;;;;;16.26;75.92;95597.16;4934927;29;20571;-73
2023/07/25 03:28:31;;;;;;;3.30;2.20;;;;;;;16.26;75.97;95593.75;4935059;29;20058;-73
2023/07/25 03:30:58;;;;;;;5.72;2.45;;;;;;;16.27;75.85;95601.41;4934663;29;20062;-73
2023/07/25 03:33:27;;;;;;;2.47;2.28;;;;;;;16.26;75.71;95602.44;4934933;29;20059;-73
2023/07/25 03:35:55;;;;;;;4.25;2.47;;;;;;;16.26;75.51;95594.53;4935046;29;20058;-73
2023/07/25 03:38:23;;;;;;;3.65;2.22;;;;;;;16.26;75.64;95596.38;4935347;29;20474;-73
2023/07/25 03:40:50;;;;;;;3.42;2.20;;;;;;;16.26;75.40;95599.00;4934875;29;20083;-73
2023/07/25 03:43:20;;;;;;;4.95;2.83;;;;;;;16.27;75.56;95600.63;4935028;29;20087;-74
2023/07/25 03:45:48;;;;;;;2.50;2.30;;;;;;;16.27;75.27;95598.00;4935017;29;20529;-73
2023/07/25 03:48:16;;;;;;;4.63;2.58;;;;;;;16.25;75.38;95598.22;4935107;29;20047;-73
2023/07/25 03:50:43;;;;;;;4.38;2.40;;;;;;;16.22;75.36;95603.16;4943323;29;20032;-73
2023/07/25 03:53:11;;;;;;;2.38;2.05;;;;;;;16.21;75.66;95606.84;4956293;29;20059;-73
2023/07/25 03:55:39;;;;;;;4.40;2.50;;;;;;;16.24;75.74;95617.66;4955241;29;20052;-72
2023/07/25 03:58:06;;;;;;;5.00;2.60;;;;;;;16.29;75.69;95622.22;4953912;29;20081;-73
2023/07/25 04:00:35;;;;;;;2.53;2.20;;;;;;;16.32;75.41;95629.63;4953628;29;20079;-75
2023/07/25 04:03:03;;;;;;;4.88;2.45;;;;;;;16.36;75.38;95635.22;4947200;29;20403;-73
2023/07/25 04:05:42;;;;;;;2.28;2.08;;;;;;;16.36;75.16;95628.13;4940801;29;20058;-72
2023/07/25 04:08:09;;;;;;;2.88;2.08;;;;;;;16.38;75.42;95622.63;4939591;29;20047;-75
2023/07/25 04:10:37;;;;;;;5.63;2.70;;;;;;;16.39;75.53;95624.19;4938806;29;20404;-72
2023/07/25 04:13:04;;;;;;;3.67;2.83;;;;;;;16.41;75.62;95612.38;4938756;29;20119;-73
2023/07/25 04:15:32;;;;;;;2.47;2.28;;;;;;;16.43;75.60;95615.56;4938160;29;20134;-72
2023/07/25 04:18:01;;;;;;;9.45;4.43;;;;;;;16.48;75.93;95622.72;4938272;29;20052;-72
2023/07/25 04:20:29;;;;;;;2.97;2.17;;;;;;;16.51;75.68;95618.81;4937935;29;20518;-73
2023/07/25 04:22:56;;;;;;;2.60;2.35;;;;;;;16.54;75.53;95620.97;4938072;29;20052;-72
2023/07/25 04:25:26;;;;;;;5.15;3.28;;;;;;;16.56;75.51;95629.44;4938050;29;20062;-73
2023/07/25 04:27:54;;;;;;;4.60;2.40;;;;;;;16.58;75.46;95633.41;4937862;29;20059;-72
2023/07/25 04:30:21;;;;;;;2.85;2.40;;;;;;;16.59;75.54;95634.19;4937688;29;20111;-73
2023/07/25 04:32:49;;;;;;;4.53;2.22;;;;;;;16.59;75.63;95626.31;4938710;29;20055;-73
2023/07/25 04:35:18;;;;;;;6.68;2.60;;;;;;;16.58;75.74;95622.09;4937984;29;20051;-73
2023/07/25 04:37:46;;;;;;;3.70;2.53;;;;;;;16.56;75.65;95619.69;4937768;29;20467;-73
2023/07/25 04:40:14;;;;;;;2.90;2.70;;;;;;;16.56;75.57;95608.38;4937404;29;20106;-73
2023/07/25 04:42:42;;;;;;;5.43;3.03;;;;;;;16.54;76.02;95610.44;4937731;29;20059;-73
2023/07/25 04:45:11;;;;;;;3.35;2.45;;;;;;;16.54;76.38;95610.44;4937542;29;20400;-73
2023/07/25 04:47:38;;;;;;;3.95;3.03;;;;;;;16.55;76.08;95609.41;4937527;29;20056;-72
2023/07/25 04:50:07;;;;;;;4.05;3.00;;;;;;;16.54;76.38;95602.56;4937339;29;20059;-72
2023/07/25 04:52:36;;;;;;;3.92;2.53;;;;;;;16.55;76.84;95614.66;4939235;29;20103;-73
2023/07/25 04:55:03;;;;;;;3.42;2.70;;;;;;;16.55;76.94;95619.94;4945922;29;20614;-73
2023/07/25 04:57:31;;;;;;;4.60;3.13;;;;;;;16.57;77.11;95615.22;4937155;29;20568;-73
2023/07/25 04:59:58;;;;;;;4.40;3.30;;;;;;;16.59;77.41;95607.88;4937213;29;20051;-73
2023/07/25 05:02:26;;;;;;;4.93;3.53;;;;;;;16.62;77.74;95602.13;4937197;29;20048;-73
2023/07/25 05:04:54;;;;;;;5.40;4.00;;;;;;;16.66;77.83;95608.47;4937192;29;20451;-73
2023/07/25 05:07:21;;;;;;;7.10;4.30;;;;;;;16.66;78.21;95598.78;4936878;29;20052;-73
2023/07/25 05:09:50;;;;;;;7.13;4.55;;;;;;;16.70;78.59;95609.59;4937082;29;20052;-73
2023/07/25 05:12:18;;;;;;;6.18;4.20;;;;;;;16.71;78.63;95595.41;4936922;29;20052;-72
2023/07/25 05:14:46;;;;;;;5.68;4.10;;;;;;;16.76;78.75;95599.94;4936234;29;20107;-72
2023/07/25 05:17:13;;;;;;;6.93;4.90;;;;;;;16.81;78.80;95597.38;4936991;29;20051;-73
2023/07/25 05:19:41;;;;;;;7.32;4.97;;;;;;;16.86;78.99;95616.69;5077494;23;20121;-82
2023/07/25 05:25:11;;;;;;;12.15;5.43;;;;;;;16.98;80.07;95647.38;5002766;28;20140;-81
2023/07/25 05:28:09;;;;;;;11.70;5.20;;;;;;;17.02;80.80;95630.03;5002826;28;20074;-80
2023/07/25 05:59:49;;;;;;;5.10;2.90;;;;;;;17.11;78.60;95620.66;5855723;23;20054;-83
2023/07/25 06:15:18;;;;;;;6.40;3.03;;;;;;;17.13;77.81;95620.41;4867347;29;20535;-81
2023/07/25 06:22:40;;;;;;;5.72;2.80;;;;;;;17.16;77.80;95625.16;4873461;29;20055;-83
2023/07/25 06:35:16;;;;;;;4.13;3.20;;;;;;;17.26;78.47;95612.13;4978234;29;20055;-79
2023/07/25 06:37:57;;;;;;;5.65;3.30;;;;;;;17.32;77.90;95597.94;5227726;23;20074;-81
2023/07/25 07:05:41;;;;;;;4.47;3.28;;;;;;;17.76;76.92;95615.47;5386627;22;20048;-81
2023/07/25 07:15:34;;;;;;;3.45;3.00;;;;;;;18.00;77.22;95615.97;5025627;28;20052;-83
2023/07/25 07:23:57;;;;;;;6.20;4.10;;;;;;;18.03;77.57;95610.97;5102874;22;20057;-81
2023/07/25 07:26:39;;;;;;;3.90;3.53;;;;;;;18.04;77.89;95609.94;5072096;28;20033;-81
2023/07/25 07:29:07;;;;;;;4.20;2.85;;;;;;;18.03;76.92;95604.91;5072413;28;20049;-81
2023/07/25 07:31:35;;;;;;;3.95;2.75;;;;;;;18.04;76.91;95607.28;5069360;28;20080;-81
2023/07/25 07:37:18;;;;;;;5.43;3.25;;;;;;;18.14;77.37;95595.22;5068070;28;20064;-79
2023/07/25 07:39:48;;;;;;;6.13;2.88;;;;;;;18.15;77.39;95592.31;5060340;28;20050;-80
2023/07/25 07:42:16;;;;;;;5.07;3.40;;;;;;;18.20;77.46;95594.19;5053172;28;20055;-80
2023/07/25 07:44:44;;;;;;;4.75;3.15;;;;;;;18.23;76.73;95598.97;5071416;28;20049;-81
2023/07/25 07:47:12;;;;;;;5.38;2.60;;;;;;;18.26;75.79;95603.75;5073129;28;20049;-81
2023/07/25 07:49:40;;;;;;;5.07;3.55;;;;;;;18.29;75.55;95608.50;5072437;28;20080;-81
2023/07/25 07:52:08;;;;;;;4.68;2.63;;;;;;;18.38;75.59;95606.97;5066537;28;20045;-82
2023/07/25 07:54:50;;;;;;;11.80;6.50;;;;;;;18.49;75.83;95597.25;5063170;28;20083;-81
2023/07/25 07:57:18;;;;;;;6.88;4.60;;;;;;;18.56;75.09;95597.03;5068972;28;20051;-81
2023/07/25 07:59:46;;;;;;;5.53;3.90;;;;;;;18.61;74.82;95594.44;5063458;28;20327;-82
2023/07/25 08:02:13;;;;;;;5.57;3.67;;;;;;;18.63;74.51;95597.59;5066993;28;20412;-82
2023/07/25 08:04:41;;;;;;;4.35;2.55;;;;;;;18.68;74.62;95595.78;5067846;28;20053;-82
2023/07/25 08:07:09;;;;;;;4.20;2.28;;;;;;;18.78;74.44;95594.25;5064267;28;20046;-82
2023/07/25 08:09:37;;;;;;;3.95;2.78;;;;;;;18.87;74.23;95598.81;5061666;28;20052;-82
2023/07/25 08:12:07;;;;;;;7.07;5.30;;;;;;;18.92;73.37;95613.88;5063714;28;20222;-83
2023/07/25 08:14:35;;;;;;;6.68;4.07;;;;;;;18.94;73.31;95607.28;5055668;28;20060;-84
2023/07/25 08:17:03;;;;;;;42.92;27.85;;;;;;;18.98;73.86;95610.19;5054730;28;20046;-83
2023/07/25 08:19:31;;;;;;;6.60;5.32;;;;;;;19.03;71.58;95623.44;5047210;28;20060;-82
2023/07/25 08:21:58;;;;;;;4.40;2.90;;;;;;;19.06;70.23;95627.41;5048046;28;20111;-82
2023/07/25 08:24:26;;;;;;;4.80;3.40;;;;;;;19.04;70.49;95642.72;5043102;28;20512;-81
2023/07/25 08:26:54;;;;;;;2.42;1.73;;;;;;;18.97;69.87;95635.03;5030565;28;20061;-82
2023/07/25 08:29:23;;;;;;;4.93;2.33;;;;;;;18.91;69.96;95631.59;5028483;28;20068;-82
2023/07/25 08:31:51;;;;;;;2.95;2.60;;;;;;;18.89;70.37;95643.44;5045674;28;20059;-82
2023/07/25 08:34:18;;;;;;;4.85;2.10;;;;;;;18.86;70.75;95644.75;5058563;28;20034;-82
2023/07/25 08:36:46;;;;;;;3.03;2.15;;;;;;;18.88;70.65;95631.28;5058929;28;20203;-82
2023/07/25 08:39:14;;;;;;;5.32;3.50;;;;;;;18.89;72.08;95633.69;5047704;28;20081;-82
2023/07/25 08:41:46;;;;;;;4.57;3.03;;;;;;;18.91;71.94;95644.81;5022962;28;20399;-82
2023/07/25 08:44:17;;;;;;;4.75;2.83;;;;;;;18.90;72.61;95643.19;5034654;28;20045;-82
2023/07/25 08:46:46;;;;;;;7.68;5.15;;;;;;;18.85;70.97;95640.53;5044765;28;20057;-82
2023/07/25 08:49:16;;;;;;;4.35;3.53;;;;;;;18.77;70.75;95651.56;5037993;28;20099;-82
2023/07/25 08:51:45;;;;;;;2.20;1.98;;;;;;;18.72;71.26;95643.63;5049444;28;20042;-82
2023/07/25 08:54:20;;;;;;;2.75;1.52;;;;;;;18.69;71.47;95641.47;5043313;28;20053;-82
2023/07/25 08:56:49;;;;;;;2.28;1.63;;;;;;;18.67;71.62;95635.66;5042649;28;20412;-82
2023/07/25 08:59:18;;;;;;;3.53;2.88;;;;;;;18.69;72.64;95637.00;5033647;28;20060;-82
2023/07/25 09:01:47;;;;;;;4.57;3.38;;;;;;;18.76;71.38;95634.13;5041397;28;20050;-82
2023/07/25 09:04:15;;;;;;;3.92;1.60;;;;;;;18.83;70.56;95629.44;5040600;28;20557;-82
2023/07/25 09:06:43;;;;;;;1.27;1.02;;;;;;;18.89;69.75;95628.41;5042915;28;20057;-82
2023/07/25 09:09:11;;;;;;;2.70;1.80;;;;;;;18.92;70.69;95630.53;5040349;28;20115;-81
2023/07/25 09:11:39;;;;;;;2.33;1.00;;;;;;;18.93;69.64;95633.94;5044552;28;20049;-82
2023/07/25 09:14:06;;;;;;;1.08;0.98;;;;;;;18.93;69.50;95621.56;5030178;28;20057;-82
2023/07/25 09:16:34;;;;;;;2.20;1.00;;;;;;;18.98;69.38;95625.25;5035268;28;20069;-83
2023/07/25 09:19:04;;;;;;;1.00;0.90;;;;;;;19.02;69.77;95621.84;5032111;28;20053;-82
2023/07/25 09:21:31;;;;;;;1.00;0.90;;;;;;;19.05;69.51;95623.19;5042884;28;20041;-83
2023/07/25 09:24:00;;;;;;;2.35;1.70;;;;;;;19.14;70.43;95625.03;5044288;28;20060;-82
2023/07/25 09:26:31;;;;;;;3.40;1.30;;;;;;;19.29;69.63;95621.66;5043281;28;20046;-82
2023/07/25 09:29:00;;;;;;;1.45;1.00;;;;;;;19.48;69.06;95621.97;5036077;28;20049;-82
2023/07/25 09:31:29;;;;;;;7.93;5.65;;;;;;;19.68;67.71;95618.56;5022043;28;20096;-81
2023/07/25 09:33:57;;;;;;;8.57;5.57;;;;;;;19.90;68.51;95609.59;5017330;28;20577;-82
2023/07/25 09:36:29;;;;;;;2.88;2.17;;;;;;;20.08;66.12;95603.75;5024244;28;20049;-83
2023/07/25 09:38:58;;;;;;;2.08;0.93;;;;;;;20.20;65.85;95602.69;5037791;28;20133;-82
2023/07/25 09:41:26;;;;;;;2.95;1.50;;;;;;;20.29;66.03;95606.38;5019134;28;20482;-82
2023/07/25 09:43:54;;;;;;;1.75;1.00;;;;;;;20.42;65.51;95600.50;5019486;28;20057;-78
2023/07/25 09:46:21;;;;;;;1.48;1.10;;;;;;;20.58;65.35;95594.16;5018248;28;20050;-79
2023/07/25 09:48:52;;;;;;;1.88;0.95;;;;;;;20.74;64.17;95591.47;5020695;28;20049;-78
2023/07/25 09:51:20;;;;;;;1.48;1.00;;;;;;;20.87;65.15;95580.28;5019159;28;20538;-78
2023/07/25 09:53:53;;;;;;;1.02;0.93;;;;;;;20.97;62.10;95577.59;5027032;28;20080;-79
2023/07/25 09:56:26;;;;;;;2.67;1.00;;;;;;;21.06;62.15;95583.09;5033170;28;20077;-78
2023/07/25 09:58:56;;;;;;;2.25;1.55;;;;;;;21.20;63.77;95585.94;5040445;28;20505;-79
2023/07/25 10:01:34;;;;;;;1.55;0.90;;;;;;;21.33;61.37;95577.38;5040181;28;20075;-79
2023/07/25 10:04:03;;;;;;;2.00;1.20;;;;;;;21.47;61.89;95571.47;5041638;28;20049;-78
2023/07/25 10:06:36;;;;;;;5.18;1.90;;;;;;;21.58;61.59;95567.69;5040077;28;20055;-80
2023/07/25 10:09:06;;;;;;;2.58;1.92;;;;;;;21.68;61.38;95561.53;5039852;28;20084;-80
2023/07/25 10:11:34;;;;;;;1.65;1.38;;;;;;;21.77;61.96;95560.63;5032680;28;20049;-75
2023/07/25 10:14:02;;;;;;;3.15;1.67;;;;;;;21.85;61.59;95566.44;5032820;28;20111;-73
2023/07/25 10:16:30;;;;;;;1.20;1.10;;;;;;;21.85;59.82;95564.56;5012687;28;20050;-72
2023/07/25 10:19:01;;;;;;;3.35;2.05;;;;;;;21.86;59.99;95578.63;5019952;28;20076;-75
2023/07/25 10:21:47;;;;;;;3.28;1.85;;;;;;;21.84;61.08;95586.06;5032127;28;20041;-76
2023/07/25 10:24:16;;;;;;;4.25;2.97;;;;;;;21.79;61.20;95587.69;5032524;28;20053;-72
2023/07/25 10:26:54;;;;;;;3.53;2.78;;;;;;;21.69;61.73;95589.63;5032441;28;20053;-73
2023/07/25 10:29:41;;;;;;;6.65;3.55;;;;;;;21.57;62.37;95596.09;5032228;28;20049;-73
2023/07/25 10:32:10;;;;;;;3.45;1.92;;;;;;;21.45;61.38;95594.84;5031533;28;20120;-75
2023/07/25 10:34:47;;;;;;;4.97;1.70;;;;;;;21.29;61.52;95586.94;5031867;28;20049;-75
2023/07/25 10:37:23;;;;;;;2.15;1.52;;;;;;;21.28;61.99;95595.97;5031893;28;20073;-76
2023/07/25 10:40:10;;;;;;;1.63;1.50;;;;;;;21.42;61.99;95600.69;5024001;28;20045;-75
2023/07/25 10:42:49;;;;;;;2.00;1.80;;;;;;;21.55;62.68;95606.19;5024911;28;20080;-75
2023/07/25 10:45:21;;;;;;;3.20;2.30;;;;;;;21.70;62.91;95602.63;5032325;28;20051;-76
2023/07/25 10:47:49;;;;;;;4.10;1.65;;;;;;;21.78;62.54;95591.44;5031832;28;20099;-75
2023/07/25 10:50:19;;;;;;;2.60;1.75;;;;;;;21.81;61.24;95596.16;5032044;28;20512;-79
2023/07/25 10:52:47;;;;;;;2.08;1.88;;;;;;;21.75;59.04;95589.31;5033775;28;20132;-76
2023/07/25 10:55:16;;;;;;;3.05;1.95;;;;;;;21.68;60.48;95588.84;5031836;28;20042;-77
2023/07/25 10:58:08;;;;;;;2.63;1.55;;;;;;;21.71;59.01;95590.16;5028397;28;20092;-76
2023/07/25 11:00:36;;;;;;;4.00;2.08;;;;;;;21.74;59.60;95593.06;5031575;28;20049;-76
2023/07/25 11:03:29;;;;;;;3.58;2.03;;;;;;;21.80;61.72;95586.63;5031959;28;20056;-76
2023/07/25 11:06:40;;;;;;;2.28;1.40;;;;;;;21.96;60.68;95594.47;5012675;28;20054;-77
2023/07/25 11:09:12;;;;;;;4.40;1.67;;;;;;;22.02;57.36;95583.53;5012330;28;20054;-77
2023/07/25 11:11:45;;;;;;;1.48;1.25;;;;;;;22.02;55.04;95572.13;5012343;28;20046;-77
2023/07/25 11:14:15;;;;;;;3.92;1.67;;;;;;;21.97;55.87;95572.97;5020186;28;20049;-76
2023/07/25 11:16:43;;;;;;;1.70;1.60;;;;;;;22.00;56.19;95567.09;5031970;28;20050;-76
2023/07/25 11:19:11;;;;;;;3.55;2.00;;;;;;;22.11;55.14;95557.16;5031793;28;20055;-76
2023/07/25 11:21:40;;;;;;;4.90;2.17;;;;;;;22.20;54.41;95563.44;5031368;28;20053;-76
2023/07/25 11:24:09;;;;;;;2.17;1.23;;;;;;;22.27;54.02;95563.13;5031741;28;20088;-76
2023/07/25 11:26:37;;;;;;;1.73;1.10;;;;;;;22.26;54.36;95550.94;5035994;28;20042;-76
2023/07/25 11:29:07;;;;;;;1.65;1.27;;;;;;;22.32;53.13;95549.00;5048318;28;20045;-76
2023/07/25 11:31:41;;;;;;;4.75;1.20;;;;;;;22.46;54.45;95555.25;5031930;28;20086;-76
2023/07/25 11:34:11;;;;;;;1.65;1.40;;;;;;;22.56;53.92;95547.13;5032985;28;20471;-76
2023/07/25 11:36:39;;;;;;;2.38;1.60;;;;;;;22.63;54.48;95539.63;5031651;28;20050;-76
2023/07/25 11:39:08;;;;;;;3.40;1.15;;;;;;;22.67;52.79;95523.88;5031599;28;20243;-76
2023/07/25 11:41:36;;;;;;;2.47;1.50;;;;;;;22.75;53.74;95525.13;5031252;28;20053;-77
2023/07/25 11:44:10;;;;;;;2.42;1.20;;;;;;;22.86;52.63;95529.25;5031481;28;20049;-76
2023/07/25 11:46:38;;;;;;;2.45;1.45;;;;;;;22.96;51.65;95539.75;5031966;28;20160;-76
2023/07/25 11:49:08;;;;;;;0.85;0.65;;;;;;;22.98;50.76;95532.28;5035305;28;20088;-76
2023/07/25 11:51:37;;;;;;;1.33;0.85;;;;;;;23.01;49.85;95515.75;5034832;28;20467;-76
2023/07/25 11:54:06;;;;;;;4.97;1.65;;;;;;;22.99;50.33;95517.88;5035381;28;20053;-76
2023/07/25 11:56:35;;;;;;;3.20;0.85;;;;;;;22.97;49.78;95520.03;5035256;28;20050;-76
2023/07/25 11:59:03;;;;;;;1.00;0.60;;;;;;;22.99;49.98;95517.88;5039102;28;20504;-79
2023/07/25 12:01:34;;;;;;;3.25;1.00;;;;;;;23.04;49.31;95511.72;5042886;28;20076;-79
2023/07/25 12:04:02;;;;;;;2.55;0.98;;;;;;;23.09;50.40;95517.00;5044435;28;20514;-79
2023/07/25 12:06:32;;;;;;;2.70;0.90;;;;;;;23.11;49.20;95516.69;5044950;28;20049;-79
2023/07/25 12:09:01;;;;;;;2.33;1.33;;;;;;;23.07;49.96;95526.31;5044220;28;20049;-78
2023/07/25 12:11:29;;;;;;;1.75;1.02;;;;;;;23.03;50.87;95515.50;5042952;28;20492;-79
2023/07/25 12:13:58;;;;;;;0.85;0.80;;;;;;;23.07;49.79;95516.50;5043554;28;20440;-79
2023/07/25 12:16:32;;;;;;;28.75;22.05;;;;;;;23.10;50.37;95520.44;5043511;28;20148;-80
2023/07/25 12:19:02;;;;;;;3.90;2.58;;;;;;;23.04;49.86;95523.16;5042973;28;20049;-79
2023/07/25 12:21:31;;;;;;;11.38;10.20;;;;;;;22.99;51.19;95535.72;5039537;28;20207;-79
2023/07/25 12:24:00;;;;;;;1.27;1.10;;;;;;;22.88;50.20;95524.44;5038953;28;20048;-79
2023/07/25 12:26:30;;;;;;;2.30;1.10;;;;;;;22.77;52.83;95523.75;5038289;28;20057;-79
2023/07/25 12:29:00;;;;;;;1.60;0.75;;;;;;;22.68;52.09;95524.69;5039329;28;20119;-79
2023/07/25 12:31:28;;;;;;;2.42;1.10;;;;;;;22.61;52.28;95520.50;5037381;28;20328;-79
2023/07/25 12:33:57;;;;;;;0.68;0.40;;;;;;;22.59;51.74;95514.69;5040323;28;20480;-78
2023/07/25 12:36:25;;;;;;;1.23;0.80;;;;;;;22.62;52.83;95500.81;5040918;28;20057;-79
2023/07/25 12:38:52;;;;;;;0.90;0.73;;;;;;;22.64;51.24;95497.88;5036889;28;20484;-78
2023/07/25 12:41:21;;;;;;;3.17;1.10;;;;;;;22.59;50.78;95500.63;5040799;28;20060;-79
2023/07/25 12:43:49;;;;;;;0.60;0.43;;;;;;;22.51;49.99;95510.00;5046404;28;20103;-78
2023/07/25 12:46:16;;;;;;;2.25;0.60;;;;;;;22.49;50.99;95508.69;5046247;28;20079;-79
2023/07/25 12:48:44;;;;;;;1.30;0.60;;;;;;;22.51;51.46;95509.22;5046050;28;20095;-80
2023/07/25 12:51:13;;;;;;;3.25;0.82;;;;;;;22.54;50.65;95513.94;5045452;28;20053;-80
2023/07/25 12:53:41;;;;;;;0.90;0.60;;;;;;;22.53;50.37;95507.84;5045478;28;20096;-80
2023/07/25 12:56:09;;;;;;;2.10;1.17;;;;;;;22.46;49.27;95512.72;5044313;28;20509;-80
2023/07/25 12:58:37;;;;;;;2.28;1.40;;;;;;;22.38;49.10;95523.97;5044300;28;20505;-80
2023/07/25 13:01:05;;;;;;;2.03;0.68;;;;;;;22.26;49.00;95528.88;5043904;28;20049;-80
2023/07/25 13:03:36;;;;;;;1.92;0.52;;;;;;;22.19;48.66;95534.50;5042224;28;20055;-80
2023/07/25 13:06:04;;;;;;;1.00;0.70;;;;;;;22.20;49.45;95520.16;5042499;28;20104;-81
2023/07/25 13:08:33;;;;;;;1.98;1.25;;;;;;;22.20;50.78;95520.16;5057147;28;20107;-80
2023/07/25 13:11:01;;;;;;;0.60;0.60;;;;;;;22.19;50.02;95547.78;5058803;28;20052;-80
2023/07/25 13:13:29;;;;;;;0.73;0.70;;;;;;;22.00;50.58;95571.59;5058640;28;20036;-80
2023/07/25 13:15:57;;;;;;;2.28;0.70;;;;;;;21.84;51.43;95591.38;5056949;28;20096;-80
2023/07/25 13:18:24;;;;;;;2.58;0.40;;;;;;;21.64;51.69;95592.34;5047301;28;20049;-79
2023/07/25 13:20:52;;;;;;;1.25;0.45;;;;;;;21.40;52.49;95604.38;5045294;28;20430;-80
2023/07/25 13:23:20;;;;;;;1.25;0.60;;;;;;;21.21;52.63;95614.06;5045796;28;20049;-79
2023/07/25 13:25:49;;;;;;;0.75;0.60;;;;;;;21.01;53.58;95617.56;5044999;28;20493;-79